createdAt,value
2023-04-21T00:01:30.074Z,9.10
2023-04-21T00:03:57.130Z,9.00
2023-04-21T00:06:24.101Z,8.90
2023-04-21T00:08:51.057Z,9.00
2023-04-21T00:11:18.333Z,8.90
2023-04-21T00:13:45.407Z,8.90
2023-04-21T00:16:12.541Z,8.90
2023-04-21T00:18:39.490Z,8.70
2023-04-21T00:21:06.397Z,8.80
2023-04-21T00:23:33.275Z,8.90
2023-04-21T00:26:02.857Z,8.90
2023-04-21T00:28:30.226Z,8.80
2023-04-21T00:30:57.102Z,8.70
2023-04-21T00:33:24.048Z,8.70
2023-04-21T00:35:50.967Z,8.80
2023-04-21T00:38:17.748Z,8.80
2023-04-21T00:40:44.587Z,8.80
2023-04-21T00:43:11.382Z,8.70
2023-04-21T00:45:38.202Z,8.80
2023-04-21T00:48:05.444Z,8.80
2023-04-21T00:50:33.608Z,8.70
2023-04-21T00:53:00.809Z,8.70
2023-04-21T00:55:27.722Z,8.80
2023-04-21T00:57:56.586Z,8.90
2023-04-21T01:00:23.625Z,8.80
2023-04-21T01:02:50.843Z,8.70
2023-04-21T01:05:18.312Z,8.70
2023-04-21T01:07:45.691Z,8.80
2023-04-21T01:10:12.515Z,8.90
2023-04-21T01:12:57.290Z,8.70
2023-04-21T01:15:24.208Z,8.80
2023-04-21T01:17:54.107Z,8.80
2023-04-21T01:20:21.032Z,8.70
2023-04-21T01:22:47.961Z,8.60
2023-04-21T01:25:15.093Z,8.60
2023-04-21T01:27:41.905Z,8.70
2023-04-21T01:30:10.184Z,8.70
2023-04-21T01:32:37.307Z,8.70
2023-04-21T01:35:04.562Z,8.70
2023-04-21T01:37:32.981Z,8.70
2023-04-21T01:40:04.820Z,8.70
2023-04-21T01:42:32.259Z,8.80
2023-04-21T01:44:59.533Z,8.80
2023-04-21T01:47:26.915Z,8.70
2023-04-21T01:49:54.037Z,8.70
2023-04-21T01:52:21.660Z,8.80
2023-04-21T01:54:48.831Z,8.80
2023-04-21T01:57:16.450Z,8.80
2023-04-21T01:59:43.941Z,8.70
2023-04-21T02:02:10.965Z,8.70
2023-04-21T02:04:37.976Z,8.70
2023-04-21T02:07:05.021Z,8.70
2023-04-21T02:09:32.217Z,8.60
2023-04-21T02:11:59.118Z,8.60
2023-04-21T02:14:26.398Z,8.60
2023-04-21T02:16:53.537Z,8.70
2023-04-21T02:19:20.791Z,8.70
2023-04-21T02:21:47.900Z,8.60
2023-04-21T02:24:14.833Z,8.70
2023-04-21T02:26:41.684Z,8.70
2023-04-21T02:29:08.545Z,8.70
2023-04-21T02:31:43.316Z,8.70
2023-04-21T02:34:21.503Z,8.60
2023-04-21T02:36:48.424Z,8.60
2023-04-21T02:39:15.351Z,8.50
2023-04-21T02:41:42.549Z,8.50
2023-04-21T02:44:09.344Z,8.60
2023-04-21T02:46:36.170Z,8.60
2023-04-21T02:49:03.312Z,8.60
2023-04-21T02:51:30.115Z,8.50
2023-04-21T02:53:57.019Z,8.60
2023-04-21T02:56:23.862Z,8.50
2023-04-21T02:58:50.705Z,8.50
2023-04-21T03:01:17.657Z,8.50
2023-04-21T03:03:44.750Z,8.40
2023-04-21T03:06:11.690Z,8.40
2023-04-21T03:08:38.494Z,8.50
2023-04-21T03:11:05.604Z,8.40
2023-04-21T03:13:32.486Z,8.40
2023-04-21T03:15:59.342Z,8.60
2023-04-21T03:18:26.398Z,8.60
2023-04-21T03:20:58.889Z,8.60
2023-04-21T03:23:25.722Z,8.60
2023-04-21T03:25:52.544Z,8.60
2023-04-21T03:28:19.480Z,8.50
2023-04-21T03:30:46.412Z,8.60
2023-04-21T03:33:13.389Z,8.60
2023-04-21T03:35:40.271Z,8.60
2023-04-21T03:38:07.086Z,8.60
2023-04-21T03:40:34.019Z,8.70
2023-04-21T03:43:00.886Z,8.60
2023-04-21T03:45:27.677Z,8.60
2023-04-21T03:47:55.927Z,8.60
2023-04-21T03:50:23.610Z,8.60
2023-04-21T03:52:50.528Z,8.50
2023-04-21T03:55:17.624Z,8.50
2023-04-21T03:57:44.560Z,8.50
2023-04-21T04:00:12.823Z,8.40
2023-04-21T04:02:40.673Z,8.50
2023-04-21T04:05:08.155Z,8.40
2023-04-21T04:07:35.916Z,8.40
2023-04-21T04:10:02.759Z,8.40
2023-04-21T04:12:29.672Z,8.40
2023-04-21T04:14:56.519Z,8.40
2023-04-21T04:17:23.357Z,8.40
2023-04-21T04:19:50.220Z,8.30
2023-04-21T04:22:17.191Z,8.40
2023-04-21T04:24:45.176Z,8.40
2023-04-21T04:27:14.262Z,8.40
2023-04-21T04:29:41.296Z,8.30
2023-04-21T04:32:11.269Z,8.30
2023-04-21T04:34:38.778Z,8.40
2023-04-21T04:37:06.685Z,8.40
2023-04-21T04:39:33.741Z,8.40
2023-04-21T04:42:01.459Z,8.50
2023-04-21T04:44:28.444Z,8.50
2023-04-21T04:46:55.827Z,8.50
2023-04-21T04:49:24.133Z,8.50
2023-04-21T04:51:51.121Z,8.50
2023-04-21T04:54:19.373Z,8.60
2023-04-21T04:56:46.352Z,8.60
2023-04-21T04:59:13.319Z,8.50
2023-04-21T05:01:41.936Z,8.40
2023-04-21T05:04:09.132Z,8.40
2023-04-21T05:06:36.170Z,8.50
2023-04-21T05:09:04.941Z,8.50
2023-04-21T05:11:32.087Z,8.50
2023-04-21T05:13:59.122Z,8.50
2023-04-21T05:16:26.076Z,8.40
2023-04-21T05:18:54.280Z,8.40
2023-04-21T05:21:27.774Z,8.40
2023-04-21T05:23:56.395Z,8.40
2023-04-21T05:26:24.605Z,8.40
2023-04-21T05:28:51.539Z,8.50
2023-04-21T05:31:18.335Z,8.40
2023-04-21T05:33:45.398Z,8.40
2023-04-21T05:36:12.509Z,8.40
2023-04-21T05:38:39.650Z,8.40
2023-04-21T05:41:07.437Z,8.40
2023-04-21T05:43:34.664Z,8.50
2023-04-21T05:46:02.986Z,8.50
2023-04-21T05:48:29.825Z,8.50
2023-04-21T05:50:56.694Z,8.50
2023-04-21T05:53:23.727Z,8.60
2023-04-21T05:55:50.804Z,8.70
2023-04-21T05:58:17.670Z,8.70
2023-04-21T06:00:44.466Z,8.60
2023-04-21T06:03:11.402Z,8.70
2023-04-21T06:05:38.328Z,8.80
2023-04-21T06:08:05.345Z,9.00
2023-04-21T06:10:32.230Z,9.00
2023-04-21T06:12:59.087Z,9.10
2023-04-21T06:15:26.221Z,9.10
2023-04-21T06:17:55.144Z,9.10
2023-04-21T06:20:22.168Z,9.00
2023-04-21T06:22:49.004Z,9.10
2023-04-21T06:25:15.859Z,9.00
2023-04-21T06:27:42.661Z,9.20
2023-04-21T06:30:09.665Z,9.40
2023-04-21T06:32:36.527Z,9.50
2023-04-21T06:35:03.625Z,9.50
2023-04-21T06:37:30.498Z,9.50
2023-04-21T06:39:57.396Z,9.60
2023-04-21T06:42:24.277Z,9.50
2023-04-21T06:44:51.145Z,9.60
2023-04-21T06:47:18.069Z,9.80
2023-04-21T06:49:45.125Z,10.00
2023-04-21T06:52:12.237Z,10.10
2023-04-21T06:54:39.144Z,10.40
2023-04-21T06:57:06.766Z,10.30
2023-04-21T06:59:34.736Z,10.40
2023-04-21T07:02:01.575Z,10.70
2023-04-21T07:04:30.296Z,10.60
2023-04-21T07:06:57.356Z,10.50
2023-04-21T07:09:24.392Z,10.70
2023-04-21T07:11:51.206Z,11.00
2023-04-21T07:14:17.997Z,11.00
2023-04-21T07:16:44.921Z,11.00
2023-04-21T07:19:11.751Z,10.90
2023-04-21T07:21:38.649Z,11.00
2023-04-21T07:24:06.056Z,11.10
2023-04-21T07:26:34.292Z,11.00
2023-04-21T07:29:01.082Z,11.40
2023-04-21T07:31:28.098Z,11.20
2023-04-21T07:33:55.027Z,11.00
2023-04-21T07:36:21.837Z,11.10
2023-04-21T07:38:48.695Z,11.20
2023-04-21T07:41:15.487Z,11.40
2023-04-21T07:43:42.361Z,11.40
2023-04-21T07:46:09.435Z,11.50
2023-04-21T07:48:36.293Z,11.60
2023-04-21T07:51:03.753Z,11.60
2023-04-21T07:53:31.207Z,11.50
2023-04-21T07:55:58.473Z,11.70
2023-04-21T07:58:25.290Z,11.60
2023-04-21T08:00:52.606Z,11.50
2023-04-21T08:03:21.430Z,11.70
2023-04-21T08:05:50.064Z,11.70
2023-04-21T08:08:20.363Z,11.80
2023-04-21T08:10:47.304Z,12.10
2023-04-21T08:13:14.369Z,12.20
2023-04-21T08:15:41.267Z,12.50
2023-04-21T08:18:09.432Z,12.50
2023-04-21T08:20:36.636Z,12.80
2023-04-21T08:23:03.556Z,12.90
2023-04-21T08:25:31.103Z,13.10
2023-04-21T08:27:58.094Z,12.80
2023-04-21T08:30:27.872Z,13.10
2023-04-21T08:32:54.756Z,13.00
2023-04-21T08:35:21.684Z,13.10
2023-04-21T08:37:49.325Z,13.40
2023-04-21T08:40:18.442Z,13.60
2023-04-21T08:42:45.887Z,13.70
2023-04-21T08:45:12.696Z,13.90
2023-04-21T08:47:41.372Z,14.00
2023-04-21T08:50:14.737Z,14.40
2023-04-21T08:52:41.850Z,14.00
2023-04-21T08:55:11.364Z,13.70
2023-04-21T08:57:38.233Z,14.00
2023-04-21T09:00:08.088Z,14.10
2023-04-21T09:03:00.635Z,14.30
2023-04-21T09:05:34.398Z,14.20
2023-04-21T09:08:16.631Z,14.90
2023-04-21T09:10:52.564Z,15.00
2023-04-21T09:13:23.239Z,14.70
2023-04-21T09:15:54.486Z,14.70
2023-04-21T09:18:26.531Z,14.20
2023-04-21T09:21:09.723Z,13.90
2023-04-21T09:23:49.884Z,14.00
2023-04-21T09:26:18.201Z,14.60
2023-04-21T09:28:47.219Z,14.80
2023-04-21T09:31:16.483Z,14.70
2023-04-21T09:36:26.327Z,14.50
2023-04-21T09:39:12.871Z,14.20
2023-04-21T09:41:45.008Z,14.00
2023-04-21T09:44:12.097Z,14.90
2023-04-21T09:46:39.419Z,14.60
2023-04-21T09:49:06.714Z,14.30
2023-04-21T09:54:28.179Z,14.70
2023-04-21T09:56:58.232Z,14.60
2023-04-21T09:59:37.441Z,14.50
2023-04-21T10:02:06.388Z,14.50
2023-04-21T10:04:35.020Z,14.70
2023-04-21T10:07:03.135Z,14.90
2023-04-21T10:09:36.852Z,14.90
2023-04-21T10:12:06.948Z,15.10
2023-04-21T10:14:35.464Z,15.00
2023-04-21T10:17:07.849Z,15.00
2023-04-21T10:19:39.769Z,15.10
2023-04-21T10:22:08.949Z,15.10
2023-04-21T10:24:44.825Z,15.60
2023-04-21T10:27:12.830Z,15.60
2023-04-21T10:29:52.374Z,15.80
2023-04-21T10:33:05.569Z,15.90
2023-04-21T10:35:58.473Z,15.40
2023-04-21T10:38:42.065Z,15.30
2023-04-21T10:41:28.067Z,15.80
2023-04-21T10:43:59.526Z,15.80
2023-04-21T10:46:37.522Z,15.70
2023-04-21T10:49:12.435Z,15.70
2023-04-21T10:52:04.299Z,16.20
2023-04-21T10:54:45.917Z,15.90
2023-04-21T10:57:20.713Z,16.30
2023-04-21T10:59:49.505Z,16.00
2023-04-21T11:02:19.285Z,15.60
2023-04-21T11:04:51.699Z,15.50
2023-04-21T11:07:23.667Z,15.50
2023-04-21T11:10:01.919Z,15.30
2023-04-21T11:12:34.167Z,15.90
2023-04-21T11:15:05.105Z,16.20
2023-04-21T11:17:32.228Z,16.40
2023-04-21T11:19:59.084Z,16.70
2023-04-21T11:22:27.332Z,16.70
2023-04-21T11:24:56.317Z,16.70
2023-04-21T11:27:26.028Z,16.50
2023-04-21T11:29:52.915Z,16.50
2023-04-21T11:32:19.889Z,16.90
2023-04-21T11:34:46.789Z,17.20
2023-04-21T11:37:23.275Z,17.20
2023-04-21T11:39:50.209Z,16.90
2023-04-21T11:42:23.098Z,16.60
2023-04-21T11:44:49.971Z,16.40
2023-04-21T11:47:22.590Z,16.70
2023-04-21T11:49:59.505Z,17.20
2023-04-21T11:52:32.939Z,17.70
2023-04-21T11:55:11.647Z,17.00
2023-04-21T11:57:40.980Z,16.50
2023-04-21T12:00:16.154Z,17.00
2023-04-21T12:02:43.797Z,17.50
2023-04-21T12:05:12.619Z,17.20
2023-04-21T12:07:45.564Z,17.10
2023-04-21T12:10:18.299Z,17.00
2023-04-21T12:12:46.114Z,16.80
2023-04-21T12:15:23.352Z,16.90
2023-04-21T12:17:52.172Z,17.00
2023-04-21T12:20:21.707Z,17.40
2023-04-21T12:22:49.493Z,17.70
2023-04-21T12:25:16.698Z,17.30
2023-04-21T12:27:54.382Z,17.20
2023-04-21T12:30:21.725Z,17.30
2023-04-21T12:32:49.136Z,17.50
2023-04-21T12:35:16.324Z,18.10
2023-04-21T12:37:44.974Z,17.70
2023-04-21T12:40:11.818Z,17.30
2023-04-21T12:42:38.764Z,17.90
2023-04-21T12:45:06.625Z,17.20
2023-04-21T12:47:34.161Z,16.80
2023-04-21T12:50:01.354Z,17.30
2023-04-21T12:52:28.514Z,17.80
2023-04-21T12:54:55.421Z,17.70
2023-04-21T12:57:22.287Z,17.70
2023-04-21T12:59:49.317Z,18.30
2023-04-21T13:02:16.828Z,17.60
2023-04-21T13:04:43.900Z,17.20
2023-04-21T13:07:10.824Z,17.10
2023-04-21T13:09:38.422Z,17.60
2023-04-21T13:12:05.262Z,17.50
2023-04-21T13:14:32.025Z,17.10
2023-04-21T13:16:59.460Z,17.40
2023-04-21T13:19:26.444Z,17.50
2023-04-21T13:21:54.362Z,17.70
2023-04-21T13:24:21.838Z,17.80
2023-04-21T13:26:48.896Z,18.10
2023-04-21T13:29:16.142Z,18.10
2023-04-21T13:31:43.169Z,18.30
2023-04-21T13:34:10.049Z,17.70
2023-04-21T13:36:37.132Z,17.50
2023-04-21T13:39:05.835Z,17.20
2023-04-21T13:41:32.808Z,17.60
2023-04-21T13:43:59.638Z,17.80
2023-04-21T13:46:26.579Z,17.50
2023-04-21T13:48:53.895Z,17.40
2023-04-21T13:51:20.984Z,18.00
2023-04-21T13:53:48.770Z,18.30
2023-04-21T13:56:16.244Z,18.40
2023-04-21T13:58:43.588Z,18.10
2023-04-21T14:01:10.530Z,17.60
2023-04-21T14:03:37.525Z,17.50
2023-04-21T14:06:04.865Z,17.40
2023-04-21T14:08:31.761Z,17.80
2023-04-21T14:10:58.794Z,17.80
2023-04-21T14:13:36.114Z,18.00
2023-04-21T14:16:07.825Z,18.00
2023-04-21T14:18:34.952Z,17.70
2023-04-21T14:21:01.827Z,17.70
2023-04-21T14:23:28.638Z,17.60
2023-04-21T14:25:55.626Z,17.40
2023-04-21T14:28:22.562Z,17.10
2023-04-21T14:30:49.532Z,17.30
2023-04-21T14:33:16.462Z,17.20
2023-04-21T14:35:43.310Z,17.20
2023-04-21T14:38:10.281Z,17.10
2023-04-21T14:40:37.107Z,16.80
2023-04-21T14:43:03.978Z,16.80
2023-04-21T14:45:31.084Z,16.90
2023-04-21T14:47:58.493Z,17.00
2023-04-21T14:50:25.339Z,16.90
2023-04-21T14:52:52.280Z,16.90
2023-04-21T14:55:19.212Z,17.00
2023-04-21T14:57:47.152Z,17.00
2023-04-21T15:00:14.550Z,17.00
2023-04-21T15:02:41.842Z,16.90
2023-04-21T15:05:09.073Z,16.90
2023-04-21T15:07:36.265Z,17.10
2023-04-21T15:10:03.343Z,17.00
2023-04-21T15:12:30.327Z,17.00
2023-04-21T15:14:57.204Z,17.10
2023-04-21T15:17:24.348Z,17.20
2023-04-21T15:19:51.397Z,17.10
2023-04-21T15:22:18.743Z,16.90
2023-04-21T15:24:46.167Z,16.80
2023-04-21T15:27:12.950Z,16.80
2023-04-21T15:29:40.116Z,16.90
2023-04-21T15:32:07.067Z,17.20
2023-04-21T15:34:33.903Z,17.30
2023-04-21T15:37:00.835Z,17.20
2023-04-21T15:39:27.689Z,17.30
2023-04-21T15:41:55.164Z,17.20
2023-04-21T15:44:22.117Z,17.20
2023-04-21T15:46:49.033Z,17.20
2023-04-21T15:49:16.186Z,17.20
2023-04-21T15:51:43.133Z,17.30
2023-04-21T15:54:10.936Z,17.30
2023-04-21T15:56:37.852Z,17.30
2023-04-21T15:59:05.223Z,17.20
2023-04-21T16:01:32.066Z,17.20
2023-04-21T16:03:59.669Z,17.10
2023-04-21T16:06:29.370Z,17.10
2023-04-21T16:08:56.773Z,17.00
2023-04-21T16:11:25.119Z,17.10
2023-04-21T16:13:52.277Z,17.20
2023-04-21T16:16:19.154Z,17.10
2023-04-21T16:18:46.112Z,17.20
2023-04-21T16:21:13.114Z,17.20
2023-04-21T16:23:40.542Z,17.20
2023-04-21T16:26:09.088Z,17.00
2023-04-21T16:28:36.092Z,17.00
2023-04-21T16:31:03.059Z,17.00
2023-04-21T16:33:30.026Z,17.00
2023-04-21T16:35:57.676Z,17.00
2023-04-21T16:38:25.054Z,17.00
2023-04-21T16:40:52.064Z,16.90
2023-04-21T16:43:19.070Z,17.00
2023-04-21T16:45:45.940Z,16.90
2023-04-21T16:48:13.065Z,17.00
2023-04-21T16:50:41.939Z,16.90
2023-04-21T16:53:09.104Z,16.90
2023-04-21T16:55:36.006Z,17.00
2023-04-21T16:58:03.102Z,16.90
2023-04-21T17:00:32.709Z,16.80
2023-04-21T17:02:59.696Z,16.80
2023-04-21T17:05:27.358Z,16.70
2023-04-21T17:07:54.199Z,16.70
2023-04-21T17:10:21.180Z,16.70
2023-04-21T17:12:48.035Z,16.60
2023-04-21T17:15:15.414Z,16.70
2023-04-21T17:17:44.820Z,16.70
2023-04-21T17:20:13.606Z,16.60
2023-04-21T17:22:41.154Z,16.60
2023-04-21T17:25:09.420Z,16.60
2023-04-21T17:27:37.588Z,16.60
2023-04-21T17:30:05.705Z,16.50
2023-04-21T17:32:34.011Z,16.40
2023-04-21T17:35:01.609Z,16.50
2023-04-21T17:37:30.334Z,16.50
2023-04-21T17:39:59.266Z,16.50
2023-04-21T17:42:29.287Z,16.30
2023-04-21T17:44:56.093Z,16.30
2023-04-21T17:47:22.971Z,16.00
2023-04-21T17:49:49.850Z,15.80
2023-04-21T17:52:17.280Z,15.50
2023-04-21T17:54:44.391Z,15.30
2023-04-21T17:57:11.967Z,15.20
2023-04-21T17:59:39.624Z,14.70
2023-04-21T18:02:07.347Z,14.50
2023-04-21T18:04:34.754Z,14.50
2023-04-21T18:07:02.559Z,14.30
2023-04-21T18:09:29.702Z,14.10
2023-04-21T18:11:57.079Z,14.10
2023-04-21T18:14:24.711Z,14.00
2023-04-21T18:16:51.723Z,14.00
2023-04-21T18:19:18.693Z,14.10
2023-04-21T18:21:45.872Z,14.10
2023-04-21T18:24:12.754Z,13.90
2023-04-21T18:26:39.674Z,13.90
2023-04-21T18:29:06.639Z,13.90
2023-04-21T18:31:34.510Z,13.70
2023-04-21T18:34:01.594Z,13.80
2023-04-21T18:36:30.727Z,13.80
2023-04-21T18:38:58.473Z,13.70
2023-04-21T18:41:26.819Z,13.50
2023-04-21T18:43:54.014Z,13.30
2023-04-21T18:46:20.985Z,13.30
2023-04-21T18:48:47.815Z,13.30
2023-04-21T18:51:14.694Z,13.30
2023-04-21T18:53:43.298Z,13.30
2023-04-21T18:56:10.193Z,13.30
2023-04-21T18:58:37.218Z,13.30
2023-04-21T19:01:04.187Z,13.30
2023-04-21T19:03:31.344Z,13.20
2023-04-21T19:05:58.355Z,13.20
2023-04-21T19:08:38.738Z,13.20
2023-04-21T19:11:10.160Z,13.10
2023-04-21T19:13:37.206Z,13.10
2023-04-21T19:16:05.212Z,12.90
2023-04-21T19:18:32.255Z,12.80
2023-04-21T19:20:59.148Z,12.80
2023-04-21T19:23:25.898Z,12.70
2023-04-21T19:25:55.076Z,12.60
2023-04-21T19:28:22.325Z,12.60
2023-04-21T19:30:49.388Z,12.40
2023-04-21T19:33:16.498Z,12.30
2023-04-21T19:35:43.453Z,12.50
2023-04-21T19:38:10.565Z,12.60
2023-04-21T19:40:37.413Z,12.80
2023-04-21T19:43:05.024Z,12.90
2023-04-21T19:45:31.998Z,12.90
2023-04-21T19:47:58.872Z,13.00
2023-04-21T19:50:26.034Z,12.90
2023-04-21T19:52:52.903Z,12.90
2023-04-21T19:55:19.976Z,12.80
2023-04-21T19:57:46.776Z,12.70
2023-04-21T20:00:14.386Z,12.70
2023-04-21T20:02:41.478Z,12.70
2023-04-21T20:05:09.467Z,12.70
2023-04-21T20:07:37.244Z,12.90
2023-04-21T20:10:05.970Z,13.00
2023-04-21T20:12:33.303Z,13.10
2023-04-21T20:15:01.194Z,12.90
2023-04-21T20:17:29.040Z,12.70
2023-04-21T20:19:56.053Z,12.60
2023-04-21T20:22:22.961Z,12.20
2023-04-21T20:24:52.099Z,11.80
2023-04-21T20:27:19.423Z,11.50
2023-04-21T20:29:47.003Z,11.50
2023-04-21T20:32:14.053Z,11.50
2023-04-21T20:34:41.034Z,11.20
2023-04-21T20:37:07.996Z,11.10
2023-04-21T20:39:34.923Z,11.20
2023-04-21T20:42:12.720Z,11.20
2023-04-21T20:44:43.981Z,11.20
2023-04-21T20:47:11.505Z,11.10
2023-04-21T20:49:40.037Z,10.90
2023-04-21T20:52:07.246Z,11.00
2023-04-21T20:54:34.822Z,11.00
2023-04-21T20:57:02.458Z,10.80
2023-04-21T20:59:29.464Z,10.80
2023-04-21T21:01:56.456Z,10.60
2023-04-21T21:04:23.662Z,10.50
2023-04-21T21:06:50.707Z,10.50
2023-04-21T21:09:19.066Z,10.40
2023-04-21T21:11:46.606Z,10.30
2023-04-21T21:14:13.518Z,10.30
2023-04-21T21:16:40.536Z,10.20
2023-04-21T21:19:07.437Z,10.20
2023-04-21T21:21:34.352Z,10.10
2023-04-21T21:24:01.266Z,10.10
2023-04-21T21:26:28.889Z,10.20
2023-04-21T21:28:55.797Z,10.40
2023-04-21T21:31:22.691Z,10.30
2023-04-21T21:33:49.532Z,10.30
2023-04-21T21:36:16.427Z,10.50
2023-04-21T21:38:43.389Z,10.60
2023-04-21T21:41:14.080Z,10.70
2023-04-21T21:43:41.264Z,10.80
2023-04-21T21:46:08.992Z,10.70
2023-04-21T21:48:36.062Z,10.30
2023-04-21T21:51:04.353Z,10.40
2023-04-21T21:53:31.498Z,10.50
2023-04-21T21:55:59.329Z,10.60
2023-04-21T21:58:26.753Z,10.60
2023-04-21T22:00:53.597Z,10.50
2023-04-21T22:03:21.359Z,10.40
2023-04-21T22:05:48.946Z,10.50
2023-04-21T22:08:15.913Z,10.50
2023-04-21T22:10:43.863Z,10.60
2023-04-21T22:13:11.215Z,10.60
2023-04-21T22:15:38.774Z,10.70
2023-04-21T22:18:07.140Z,10.60
2023-04-21T22:20:34.283Z,10.50
2023-04-21T22:23:01.076Z,10.50
2023-04-21T22:25:27.969Z,10.50
2023-04-21T22:27:58.659Z,10.50
2023-04-21T22:30:25.945Z,10.40
2023-04-21T22:32:53.045Z,10.40
2023-04-21T22:35:20.312Z,10.30
2023-04-21T22:37:47.137Z,10.40
2023-04-21T22:40:14.029Z,10.30
2023-04-21T22:42:40.867Z,10.30
2023-04-21T22:45:08.307Z,10.20
2023-04-21T22:47:35.448Z,10.20
2023-04-21T22:50:02.420Z,10.20
2023-04-21T22:52:29.296Z,10.10
2023-04-21T22:54:56.163Z,10.10
2023-04-21T22:57:23.076Z,10.10
2023-04-21T22:59:49.969Z,10.10
2023-04-21T23:02:16.879Z,10.10
2023-04-21T23:04:44.140Z,10.10
2023-04-21T23:07:11.001Z,10.10
2023-04-21T23:09:38.122Z,10.10
2023-04-21T23:12:06.177Z,10.10
2023-04-21T23:14:33.106Z,10.00
2023-04-21T23:17:00.046Z,10.00
2023-04-21T23:19:26.968Z,9.90
2023-04-21T23:21:53.828Z,9.90
2023-04-21T23:24:20.636Z,10.00
2023-04-21T23:26:47.453Z,9.90
2023-04-21T23:29:14.252Z,10.00
2023-04-21T23:31:41.203Z,9.90
2023-04-21T23:34:08.140Z,9.90
2023-04-21T23:36:35.004Z,9.90
2023-04-21T23:39:02.014Z,9.90
2023-04-21T23:41:28.971Z,9.80
2023-04-21T23:43:55.966Z,9.90
2023-04-21T23:46:22.905Z,9.80
2023-04-21T23:48:49.856Z,9.80
2023-04-21T23:51:16.753Z,9.80
2023-04-21T23:53:43.666Z,9.70
2023-04-21T23:56:10.547Z,9.70
2023-04-21T23:58:37.636Z,9.60
